Chatsworth, California
Current Conditions -  °F | °C
As of 12:51 AM on Friday 28 Nov 2014 (Local Time) from KVNY Reporting Station
Clear Clear  
Wind Chill: 55°   Ceiling: Unl
Heat Index: 55°   Visibility: 10mi
Dew Point: 33°   Wind: 0mph
Humidity: 43%   Direction: NA
Pressure: 30.02"   Gusts: NA
Location:  34.26°N, 118.6°W
Report Text: KVNY 280851Z 00000KT 10SM CLR 13/01 A3002 RMK AO2 SLP157 T01280006 58005
Loading
Personal Weather Stations






























Interactive Weather Map New forecast layout! Learn more

10-Day Weather Forecast

Advertisements
Track Severe Weather on mobile